Sara Borchard — V2BY8 — position and weather

sailwx.info

Track history (hours):
 
Tides and Currents Weather Stations Pressure Air Temp Water Temp Dewpoint Dewpoint Depression Visibility Wind Speed Wind Dir Waves Ship Positions

Sara Borchard

Last reported at 2014-Dec-22 13:17 UTC. Time now 2014-Dec-22 17:04 UTC.
Position N 35°38' E 024°48'.

Length 134 m; draft 8.6 m.

Type: Ship (hazmat cat A). MMSI: 304962000.

Date/timePositionNaut miles runAvg speedWind from/ knotsBaromVisibWave heightAir tempDewpointWater temp
2014-Dec-22 13:17N 35°38' E 024°48'1815.8
2014-Dec-22 12:08N 35°41' E 024°26'6015.0
2014-Dec-22 08:07N 35°47' E 023°12'77615.3
2014-Dec-20 05:33N 43°16' E 009°32'1616.4
2014-Dec-20 04:33N 43°32' E 009°24'1716.5
2014-Dec-20 03:33N 43°47' E 009°15'1716.5
2014-Dec-20 02:33N 44°02' E 009°07'1716.6
2014-Dec-20 01:33N 44°18' E 008°59'7 6.7
2014-Dec-20 00:29N 44°24' E 008°54'0 0.0
2014-Dec-19 23:31N 44°24' E 008°54'0 0.0
2014-Dec-19 22:28N 44°24' E 008°54'0 0.0
2014-Dec-19 21:33N 44°24' E 008°54'0 0.0
2014-Dec-19 20:33N 44°24' E 008°54'0 0.0
2014-Dec-19 19:32N 44°24' E 008°54'0 0.0
2014-Dec-19 18:32N 44°24' E 008°54'0 0.0
2014-Dec-19 17:33N 44°24' E 008°54'4 4.4
2014-Dec-19 16:33N 44°22' E 008°59'1 0.9
2014-Dec-19 15:33N 44°22' E 009°00'0 0.0
2014-Dec-19 14:27N 44°22' E 009°00'0 0.0
2014-Dec-19 13:29N 44°22' E 009°00'0 0.0
2014-Dec-19 12:29N 44°22' E 009°00'0 0.0
2014-Dec-19 11:31N 44°22' E 009°00'3 2.9
2014-Dec-19 10:33N 44°19' E 008°60'1111.3
2014-Dec-19 09:34N 44°12' E 008°47'1111.3
2014-Dec-19 08:33N 44°03' E 008°37'1211.4
2014-Dec-19 07:32N 43°55' E 008°26'3611.0
2014-Dec-19 04:17N 43°32' E 007°48'810.9
2014-Dec-19 03:33N 43°27' E 007°39'2711.0
2014-Dec-19 01:07N 43°12' E 007°09'710.9
2014-Dec-19 00:27N 43°08' E 007°00'4510.9
2014-Dec-18 20:18N 42°53' E 006°02'2011.1
2014-Dec-18 18:30N 42°60' E 005°36'1211.7
2014-Dec-18 17:30N 43°05' E 005°21'1010.6
2014-Dec-18 16:33N 43°09' E 005°09'1010.6
2014-Dec-18 15:34N 43°19' E 005°15'4 1.4
2014-Dec-18 12:22N 43°21' E 005°20'0 0.0
2014-Dec-18 10:18N 43°21' E 005°20'0 0.0
2014-Dec-18 07:29N 43°21' E 005°20'0 0.0
2014-Dec-18 06:32N 43°21' E 005°20'0 0.0
2014-Dec-18 05:25N 43°21' E 005°20'1 1.0
2014-Dec-18 04:24N 43°21' E 005°19'7 8.8
2014-Dec-18 03:33N 43°16' E 005°11'1211.5
2014-Dec-18 02:28N 43°04' E 005°06'1213.0
2014-Dec-18 01:32N 42°55' E 004°55'1414.0
2014-Dec-18 00:34N 42°45' E 004°43'1413.9
2014-Dec-17 23:34N 42°35' E 004°30'1714.1
2014-Dec-17 22:21N 42°22' E 004°14'1513.8
2014-Dec-17 21:17N 42°13' E 003°59'2814.6
2014-Dec-17 19:21N 41°56' E 003°29'3015.3
2014-Dec-17 17:23N 41°38' E 002°56'1314.9
2014-Dec-17 16:30N 41°30' E 002°42'1616.8
2014-Dec-17 15:32N 41°20' E 002°25'31 2.5
2014-Dec-17 03:10N 41°05' E 001°48'1213.5
2014-Dec-17 02:16N 40°58' E 001°35'88 5.3
2014-Dec-16 09:33N 39°30' E 001°24'1716.6
2014-Dec-16 08:33N 39°24' E 001°44'1616.3
2014-Dec-16 07:33N 39°18' E 002°04'1616.1
2014-Dec-16 06:33N 39°12' E 002°23'1616.2
2014-Dec-16 05:34N 39°06' E 002°42'1716.5
2014-Dec-16 04:33N 39°00' E 003°03'1716.4
2014-Dec-16 03:32N 38°56' E 003°23'1816.4
2014-Dec-16 02:25N 38°51' E 003°46'  
Track history (hours):
 
Tides and Currents Weather Stations Pressure Air Temp Water Temp Dewpoint Dewpoint Depression Visibility Wind Speed Wind Dir Waves Ship Positions

Sara Borchard

Last reported at 2014-Dec-22 13:17 UTC. Time now 2014-Dec-22 17:04 UTC.
Position N 35°38' E 024°48'.

Length 134 m; draft 8.6 m.

Type: Ship (hazmat cat A). MMSI: 304962000.

Date/timePositionNaut miles runAvg speedWind from/ knotsBaromVisibWave heightAir tempDewpointWater temp
2014-Dec-22 13:17N 35°38' E 024°48'1815.8
2014-Dec-22 12:08N 35°41' E 024°26'6015.0
2014-Dec-22 08:07N 35°47' E 023°12'77615.3
2014-Dec-20 05:33N 43°16' E 009°32'1616.4
2014-Dec-20 04:33N 43°32' E 009°24'1716.5
2014-Dec-20 03:33N 43°47' E 009°15'1716.5
2014-Dec-20 02:33N 44°02' E 009°07'1716.6
2014-Dec-20 01:33N 44°18' E 008°59'7 6.7
2014-Dec-20 00:29N 44°24' E 008°54'0 0.0
2014-Dec-19 23:31N 44°24' E 008°54'0 0.0
2014-Dec-19 22:28N 44°24' E 008°54'0 0.0
2014-Dec-19 21:33N 44°24' E 008°54'0 0.0
2014-Dec-19 20:33N 44°24' E 008°54'0 0.0
2014-Dec-19 19:32N 44°24' E 008°54'0 0.0
2014-Dec-19 18:32N 44°24' E 008°54'0 0.0
2014-Dec-19 17:33N 44°24' E 008°54'4 4.4
2014-Dec-19 16:33N 44°22' E 008°59'1 0.9
2014-Dec-19 15:33N 44°22' E 009°00'0 0.0
2014-Dec-19 14:27N 44°22' E 009°00'0 0.0
2014-Dec-19 13:29N 44°22' E 009°00'0 0.0
2014-Dec-19 12:29N 44°22' E 009°00'0 0.0
2014-Dec-19 11:31N 44°22' E 009°00'3 2.9
2014-Dec-19 10:33N 44°19' E 008°60'1111.3
2014-Dec-19 09:34N 44°12' E 008°47'1111.3
2014-Dec-19 08:33N 44°03' E 008°37'1211.4
2014-Dec-19 07:32N 43°55' E 008°26'3611.0
2014-Dec-19 04:17N 43°32' E 007°48'810.9
2014-Dec-19 03:33N 43°27' E 007°39'2711.0
2014-Dec-19 01:07N 43°12' E 007°09'710.9
2014-Dec-19 00:27N 43°08' E 007°00'4510.9
2014-Dec-18 20:18N 42°53' E 006°02'2011.1
2014-Dec-18 18:30N 42°60' E 005°36'1211.7
2014-Dec-18 17:30N 43°05' E 005°21'1010.6
2014-Dec-18 16:33N 43°09' E 005°09'1010.6
2014-Dec-18 15:34N 43°19' E 005°15'4 1.4
2014-Dec-18 12:22N 43°21' E 005°20'0 0.0
2014-Dec-18 10:18N 43°21' E 005°20'0 0.0
2014-Dec-18 07:29N 43°21' E 005°20'0 0.0
2014-Dec-18 06:32N 43°21' E 005°20'0 0.0
2014-Dec-18 05:25N 43°21' E 005°20'1 1.0
2014-Dec-18 04:24N 43°21' E 005°19'7 8.8
2014-Dec-18 03:33N 43°16' E 005°11'1211.5
2014-Dec-18 02:28N 43°04' E 005°06'1213.0
2014-Dec-18 01:32N 42°55' E 004°55'1414.0
2014-Dec-18 00:34N 42°45' E 004°43'1413.9
2014-Dec-17 23:34N 42°35' E 004°30'1714.1
2014-Dec-17 22:21N 42°22' E 004°14'1513.8
2014-Dec-17 21:17N 42°13' E 003°59'2814.6
2014-Dec-17 19:21N 41°56' E 003°29'3015.3
2014-Dec-17 17:23N 41°38' E 002°56'1314.9
2014-Dec-17 16:30N 41°30' E 002°42'1616.8
2014-Dec-17 15:32N 41°20' E 002°25'31 2.5
2014-Dec-17 03:10N 41°05' E 001°48'1213.5
2014-Dec-17 02:16N 40°58' E 001°35'88 5.3
2014-Dec-16 09:33N 39°30' E 001°24'1716.6
2014-Dec-16 08:33N 39°24' E 001°44'1616.3
2014-Dec-16 07:33N 39°18' E 002°04'1616.1
2014-Dec-16 06:33N 39°12' E 002°23'1616.2
2014-Dec-16 05:34N 39°06' E 002°42'1716.5
2014-Dec-16 04:33N 39°00' E 003°03'1716.4
2014-Dec-16 03:32N 38°56' E 003°23'1816.4
2014-Dec-16 02:25N 38°51' E 003°46'  

Dump ship's entire track history